KBFL

Meadows Field

Airport
ICAO code
KBFL
Summary
ICAO Region
NAM
ICAO Territory
Location

Bakersfield, California

Serving
Bakersfield
Coordinates
35° 26' 16" N , 119° 3' 9" W
KCC
Airport LOS
Parallel Runway Operation
Metar
Observation
KBFL 071954Z VRB05KT 8SM CLR 31/09 A3003 RMK AO2 SLP160 T03110089
Station
Bakersfield, Meadows Field Airport
Date/Time
2022-10-07 19:54:00
Wind speed
05 kts
Lowest cloud amount
n/a
Temperature
31.1°C
Dew point
8.9°C
Humidity
25%
Weather condition
n/a

International airport located 6 km northwest of the central business district of Bakersfield, California. It is the primary airport serving the Greater Bakersfield metropolitan area and one of two international airports in the San Joaquin Valley.

Climatology

Hot Desert Climate (Köppen climate classification BWh)

Airport map

Aerial View

SKYbrary Partners:

Safety knowledge contributed by: